64.6°F
Current conditions from King Hill
Updated every 5 minutes
 
  Thursday July 31, 2014

Station Historical Data
Daily Summary for March 5, 2012 Units:  Metric    English   Both
« Previous Day
Next Day »
Daily Weekly Monthly Yearly Custom
  High: Low: Average:
Temperature: -6.8 °C -15.2 °C -11.7 °C
Dew Point: -14.3 °C -18.9 °C -17.1 °C
Humidity: 81% 45% 66%
Wind Speed: 9.7km/h 1.6km/h 4km/h
Wind Gust: 29km/h - -
Wind- - WNW
Pressure: 1028 hPa 1004.6 hPa -
Precipitation: 0 mm    
Historical Graphs
 
 
Tabular Data for March 5, 2012
Time Temperature Dew Point Pressure Wind Wind Speed Wind Gust Humidity Daily Rainfall
00:00 -11.4 °C -14.3 °C 1004.6 hPa NNW 1.6 km/h 12.9 km/h 79% 0 mm
00:05 -11.6 °C -14.4 °C 1004.6 hPa NNW 3.2 km/h 8 km/h 79% 0 mm
00:10 -11.6 °C -14.5 °C 1004.6 hPa Calm   8 km/h 79% 0 mm
00:15 -11.7 °C -14.4 °C 1005 hPa Calm   8 km/h 80% 0 mm
00:20 -11.7 °C -14.5 °C 1005 hPa Calm     80% 0 mm
00:25 -11.8 °C -14.6 °C 1005 hPa NNW 1.6 km/h 4.8 km/h 80% 0 mm
00:30 -11.7 °C -14.5 °C 1005 hPa NNW 1.6 km/h 6.4 km/h 80% 0 mm
00:35 -11.7 °C -14.5 °C 1005 hPa NNW 1.6 km/h 6.4 km/h 80% 0 mm
00:45 -11.7 °C -14.4 °C 1005.3 hPa Calm   4.8 km/h 80% 0 mm
00:50 -11.7 °C -14.4 °C 1005 hPa NW 6.4 km/h 11.3 km/h 80% 0 mm
00:55 -11.7 °C -14.5 °C 1005.3 hPa NW 8 km/h 17.7 km/h 80% 0 mm
01:00 -11.8 °C -14.6 °C 1005.3 hPa NNW 6.4 km/h 17.7 km/h 80% 0 mm
01:05 -11.8 °C -14.6 °C 1005.3 hPa NW 1.6 km/h 11.3 km/h 80% 0 mm
01:10 -11.9 °C -14.6 °C 1005.6 hPa WNW 3.2 km/h 9.7 km/h 80% 0 mm
01:15 -11.9 °C -14.6 °C 1005.6 hPa NNW 4.8 km/h 11.3 km/h 80% 0 mm
01:20 -11.9 °C -14.7 °C 1005.6 hPa NW 1.6 km/h 11.3 km/h 80% 0 mm
01:30 -11.9 °C -14.6 °C 1005.6 hPa NNW 1.6 km/h 8 km/h 80% 0 mm
01:35 -11.9 °C -14.7 °C 1005.6 hPa NW 3.2 km/h 8 km/h 80% 0 mm
01:40 -11.9 °C -14.6 °C 1005.6 hPa NW 3.2 km/h 8 km/h 81% 0 mm
01:45 -11.9 °C -14.7 °C 1006 hPa NW 3.2 km/h 6.4 km/h 80% 0 mm
01:50 -12 °C -14.6 °C 1006 hPa NNW 3.2 km/h 6.4 km/h 81% 0 mm
01:55 -12.1 °C -14.8 °C 1006 hPa NW 6.4 km/h 11.3 km/h 80% 0 mm
02:00 -12.2 °C -14.9 °C 1006 hPa Calm   11.3 km/h 80% 0 mm
02:05 -12.2 °C -14.9 °C 1006 hPa NW 1.6 km/h 8 km/h 80% 0 mm
02:10 -12.2 °C -14.9 °C 1006 hPa Calm   4.8 km/h 80% 0 mm
02:15 -12.3 °C -15 °C 1006.3 hPa NW 3.2 km/h 8 km/h 80% 0 mm
02:20 -12.3 °C -15 °C 1006.3 hPa NW 6.4 km/h 14.5 km/h 80% 0 mm
02:25 -12.3 °C -15 °C 1006.3 hPa NW 3.2 km/h 14.5 km/h 80% 0 mm
02:30 -12.3 °C -15.1 °C 1006.3 hPa NNW 3.2 km/h 11.3 km/h 80% 0 mm
02:35 -12.4 °C -15.2 °C 1006.7 hPa NNW 1.6 km/h 11.3 km/h 80% 0 mm
02:40 -12.5 °C -15.2 °C 1006.7 hPa NNW 1.6 km/h 9.7 km/h 80% 0 mm
02:45 -12.6 °C -15.3 °C 1006.7 hPa NNW 6.4 km/h 11.3 km/h 80% 0 mm
02:50 -12.7 °C -15.4 °C 1006.3 hPa NNW 1.6 km/h 11.3 km/h 80% 0 mm
02:55 -12.8 °C -15.5 °C 1006.7 hPa NW 3.2 km/h 9.7 km/h 80% 0 mm
03:00 -12.8 °C -15.5 °C 1006.7 hPa NW 3.2 km/h 9.7 km/h 80% 0 mm
03:05 -12.8 °C -15.5 °C 1006.7 hPa NW 3.2 km/h 8 km/h 80% 0 mm
03:15 -12.9 °C -15.8 °C 1007 hPa NW 4.8 km/h 9.7 km/h 79% 0 mm
03:20 -13 °C -15.9 °C 1007 hPa NNW 1.6 km/h 9.7 km/h 79% 0 mm
03:25 -13.1 °C -16 °C 1007 hPa NW 1.6 km/h 9.7 km/h 79% 0 mm
03:30 -13.2 °C -16.1 °C 1007.3 hPa NW 3.2 km/h 8 km/h 79% 0 mm
03:40 -13.3 °C -16.2 °C 1007.3 hPa Calm   8 km/h 79% 0 mm
03:45 -13.3 °C -16.2 °C 1007.7 hPa Calm   1.6 km/h 79% 0 mm
03:50 -13.4 °C -16.3 °C 1007.7 hPa Calm   1.6 km/h 79% 0 mm
03:55 -13.4 °C -16.3 °C 1007.7 hPa Calm   3.2 km/h 79% 0 mm
04:00 -13.6 °C -16.4 °C 1007.7 hPa NW 3.2 km/h 6.4 km/h 79% 0 mm
04:05 -13.7 °C -16.7 °C 1008 hPa NW 1.6 km/h 8 km/h 78% 0 mm
04:10 -13.7 °C -16.6 °C 1008 hPa Calm   8 km/h 79% 0 mm
04:15 -13.8 °C -16.8 °C 1008.4 hPa Calm   6.4 km/h 78% 0 mm
04:20 -13.9 °C -16.9 °C 1008.4 hPa Calm   8 km/h 78% 0 mm
04:25 -13.9 °C -16.9 °C 1008.4 hPa Calm   8 km/h 78% 0 mm
04:30 -14.1 °C -17.1 °C 1008.4 hPa Calm   1.6 km/h 78% 0 mm
04:35 -14.2 °C -17.2 °C 1008.7 hPa Calm     78% 0 mm
04:40 -14.3 °C -17.3 °C 1008.7 hPa NNW 1.6 km/h 6.4 km/h 78% 0 mm
04:50 -14.4 °C -17.4 °C 1009 hPa Calm   8 km/h 78% 0 mm
05:00 -14.7 °C -17.7 °C 1009 hPa Calm   4.8 km/h 78% 0 mm
05:05 -14.7 °C -17.7 °C 1009 hPa Calm   4.8 km/h 78% 0 mm
05:10 -14.7 °C -17.7 °C 1009 hPa Calm   4.8 km/h 78% 0 mm
05:15 -14.7 °C -17.6 °C 1009.4 hPa NNW 1.6 km/h 4.8 km/h 79% 0 mm
05:20 -14.8 °C -17.8 °C 1009.4 hPa Calm   4.8 km/h 78% 0 mm
05:30 -14.8 °C -17.8 °C 1009.4 hPa Calm   1.6 km/h 78% 0 mm
05:35 -14.9 °C -17.7 °C 1009.7 hPa Calm   4.8 km/h 79% 0 mm
05:40 -14.9 °C -17.9 °C 1009.7 hPa Calm   4.8 km/h 78% 0 mm
05:45 -14.9 °C -17.9 °C 1009.7 hPa Calm   4.8 km/h 78% 0 mm
05:50 -15 °C -18 °C 1010 hPa Calm     78% 0 mm
06:00 -15 °C -18 °C 1010 hPa Calm   3.2 km/h 78% 0 mm
06:05 -15 °C -18 °C 1010.4 hPa Calm   3.2 km/h 78% 0 mm
06:10 -15 °C -18 °C 1010.4 hPa Calm   3.2 km/h 78% 0 mm
06:15 -15.1 °C -18.2 °C 1010.4 hPa Calm   4.8 km/h 77% 0 mm
06:20 -15.1 °C -18.2 °C 1010.4 hPa Calm   6.4 km/h 77% 0 mm
06:25 -15.1 °C -18.2 °C 1010.7 hPa Calm   6.4 km/h 77% 0 mm
06:30 -15.2 °C -18.3 °C 1010.7 hPa Calm   3.2 km/h 77% 0 mm
06:40 -15.2 °C -18.3 °C 1011.1 hPa Calm   6.4 km/h 77% 0 mm
06:45 -15.2 °C -18.3 °C 1011.1 hPa NNW 3.2 km/h 8 km/h 77% 0 mm
06:50 -15.2 °C -18.4 °C 1011.1 hPa NW 4.8 km/h 12.9 km/h 76% 0 mm
06:55 -15.2 °C -18.6 °C 1011.4 hPa NW 3.2 km/h 12.9 km/h 75% 0 mm
07:00 -15.2 °C -18.6 °C 1011.4 hPa NNW 1.6 km/h 11.3 km/h 75% 0 mm
07:05 -15.1 °C -18.5 °C 1011.7 hPa NNW 1.6 km/h 9.7 km/h 75% 0 mm
07:10 -15.1 °C -18.5 °C 1011.7 hPa NW 4.8 km/h 11.3 km/h 75% 0 mm
07:15 -15.1 °C -18.7 °C 1012.1 hPa NW 4.8 km/h 11.3 km/h 74% 0 mm
07:20 -15.2 °C -18.8 °C 1012.1 hPa NNW 4.8 km/h 9.7 km/h 74% 0 mm
07:25 -15.2 °C -18.8 °C 1012.1 hPa NW 4.8 km/h 11.3 km/h 74% 0 mm
07:30 -15.1 °C -18.7 °C 1012.1 hPa NW 4.8 km/h 16.1 km/h 74% 0 mm
07:35 -15 °C -18.6 °C 1012.4 hPa NNW 3.2 km/h 16.1 km/h 74% 0 mm
07:45 -14.9 °C -18.5 °C 1012.4 hPa NNW 1.6 km/h 9.7 km/h 74% 0 mm
07:50 -14.8 °C -18.4 °C 1012.8 hPa WNW 3.2 km/h 9.7 km/h 74% 0 mm
07:55 -14.8 °C -18.4 °C 1012.8 hPa NW 3.2 km/h 11.3 km/h 74% 0 mm
08:00 -14.7 °C -18.5 °C 1012.8 hPa WNW 4.8 km/h 11.3 km/h 73% 0 mm
08:05 -14.7 °C -18.4 °C 1012.8 hPa NW 4.8 km/h 9.7 km/h 73% 0 mm
08:10 -14.6 °C -18.4 °C 1013.1 hPa NW 4.8 km/h 14.5 km/h 73% 0 mm
08:15 -14.5 °C -18.4 °C 1013.1 hPa WNW 3.2 km/h 14.5 km/h 72% 0 mm
08:20 -14.4 °C -18.3 °C 1013.1 hPa NW 6.4 km/h 11.3 km/h 72% 0 mm
08:25 -14.4 °C -18.7 °C 1013.1 hPa NW 8 km/h 12.9 km/h 70% 0 mm
08:30 -14.4 °C -18.7 °C 1013.4 hPa WNW 4.8 km/h 12.9 km/h 70% 0 mm
08:35 -14.3 °C -18.8 °C 1013.4 hPa WNW 3.2 km/h 9.7 km/h 69% 0 mm
08:40 -14.3 °C -18.7 °C 1013.4 hPa WNW 3.2 km/h 9.7 km/h 69% 0 mm
08:45 -14.3 °C -18.9 °C 1013.4 hPa Calm   8 km/h 68% 0 mm
08:50 -14.2 °C -18.8 °C 1013.8 hPa Calm   8 km/h 68% 0 mm
08:55 -14 °C -18.8 °C 1013.8 hPa WNW 1.6 km/h 6.4 km/h 67% 0 mm
09:00 -13.8 °C -18.7 °C 1013.8 hPa West 4.8 km/h 8 km/h 67% 0 mm
09:05 -13.9 °C -18.7 °C 1014.1 hPa WNW 3.2 km/h 9.7 km/h 67% 0 mm
09:10 -13.8 °C -18.4 °C 1014.1 hPa West 6.4 km/h 9.7 km/h 68% 0 mm
09:15 -13.8 °C -18.4 °C 1014.1 hPa NW 3.2 km/h 9.7 km/h 68% 0 mm
09:20 -13.5 °C -18 °C 1014.1 hPa West 1.6 km/h 8 km/h 69% 0 mm
09:25 -13.4 °C -18.3 °C 1014.4 hPa Calm   8 km/h 67% 0 mm
09:30 -13.3 °C -18.2 °C 1014.4 hPa WNW 3.2 km/h 9.7 km/h 67% 0 mm
09:35 -13.4 °C -18.3 °C 1014.4 hPa West 4.8 km/h 9.7 km/h 67% 0 mm
09:40 -13.4 °C -18.4 °C 1014.8 hPa West 3.2 km/h 11.3 km/h 66% 0 mm
09:50 -13.3 °C -18.4 °C 1014.8 hPa SW 4.8 km/h 11.3 km/h 65% 0 mm
09:55 -13.1 °C -18.4 °C 1014.8 hPa SW 6.4 km/h 9.7 km/h 64% 0 mm
10:00 -12.9 °C -18.3 °C 1014.8 hPa Calm   9.7 km/h 64% 0 mm
10:05 -12.8 °C -18.4 °C 1015.1 hPa WSW 6.4 km/h 12.9 km/h 63% 0 mm
10:10 -13 °C -18.8 °C 1015.1 hPa West 6.4 km/h 12.9 km/h 62% 0 mm
10:15 -13.1 °C -18.7 °C 1015.1 hPa WNW 6.4 km/h 16.1 km/h 63% 0 mm
10:20 -13.2 °C -18.7 °C 1015.1 hPa WNW 9.7 km/h 16.1 km/h 63% 0 mm
10:30 -12.9 °C -18.7 °C 1015.5 hPa WNW 6.4 km/h 12.9 km/h 62% 0 mm
10:35 -12.9 °C -18.7 °C 1015.5 hPa WNW 4.8 km/h 11.3 km/h 62% 0 mm
10:40 -12.7 °C -18.5 °C 1015.5 hPa West 4.8 km/h 11.3 km/h 62% 0 mm
10:45 -12.7 °C -18.6 °C 1015.5 hPa SW 4.8 km/h 12.9 km/h 61% 0 mm
10:50 -12.6 °C -18.5 °C 1015.5 hPa West 3.2 km/h 12.9 km/h 61% 0 mm
10:55 -12.3 °C -18.7 °C 1015.5 hPa SW 8 km/h 17.7 km/h 59% 0 mm
11:00 -12.6 °C -18.9 °C 1015.8 hPa WNW 8 km/h 20.9 km/h 59% 0 mm
11:05 -12.3 °C -18.7 °C 1015.8 hPa WNW 4.8 km/h 20.9 km/h 59% 0 mm
11:10 -12 °C -18.6 °C 1016.1 hPa West 1.6 km/h 20.9 km/h 58% 0 mm
11:15 -11.7 °C -18.5 °C 1016.1 hPa WSW 3.2 km/h 20.9 km/h 57% 0 mm
11:20 -11.7 °C -18.7 °C 1016.1 hPa WNW 4.8 km/h 12.9 km/h 56% 0 mm
11:25 -11.6 °C -18.6 °C 1016.1 hPa WNW 8 km/h 14.5 km/h 56% 0 mm
11:30 -11.6 °C -18.6 °C 1016.5 hPa West 8 km/h 16.1 km/h 56% 0 mm
11:35 -11.3 °C -18.3 °C 1016.5 hPa SW 4.8 km/h 16.1 km/h 56% 0 mm
11:40 -11.1 °C -18.3 °C 1016.5 hPa WNW 6.4 km/h 14.5 km/h 55% 0 mm
11:45 -11 °C -18.3 °C 1016.8 hPa NNW 6.4 km/h 29 km/h 55% 0 mm
11:50 -10.9 °C -18.2 °C 1016.8 hPa West 6.4 km/h 29 km/h 55% 0 mm
12:00 -10.8 °C -18.5 °C 1016.8 hPa WNW 1.6 km/h 11.3 km/h 53% 0 mm
12:05 -10.6 °C -18.3 °C 1016.8 hPa WSW 3.2 km/h 11.3 km/h 53% 0 mm
12:10 -10.3 °C -18.1 °C 1016.8 hPa WNW 6.4 km/h 11.3 km/h 53% 0 mm
12:15 -10.3 °C -18.3 °C 1017.2 hPa NW 4.8 km/h 16.1 km/h 52% 0 mm
12:20 -9.8 °C -17.8 °C 1017.2 hPa NNW 6.4 km/h 16.1 km/h 52% 0 mm
12:25 -9.6 °C -17.9 °C 1017.2 hPa NNW 8 km/h 16.1 km/h 51% 0 mm
12:30 -9.6 °C -18.1 °C 1017.2 hPa NW 4.8 km/h 16.1 km/h 50% 0 mm
12:40 -9.8 °C -18.1 °C 1017.2 hPa WNW 9.7 km/h 16.1 km/h 51% 0 mm
12:50 -9.3 °C -18.1 °C 1017.2 hPa WNW 6.4 km/h 11.3 km/h 49% 0 mm
13:00 -9.9 °C -18.4 °C 1017.5 hPa WSW 9.7 km/h 16.1 km/h 50% 0 mm
13:05 -10 °C -18.4 °C 1017.5 hPa West 3.2 km/h 16.1 km/h 50% 0 mm
13:10 -9.5 °C -17.8 °C 1017.5 hPa West 6.4 km/h 12.9 km/h 51% 0 mm
13:15 -9.2 °C -17.7 °C 1017.5 hPa WSW 3.2 km/h 12.9 km/h 50% 0 mm
13:20 -8.9 °C -17.7 °C 1017.5 hPa WNW 6.4 km/h 12.9 km/h 49% 0 mm
13:25 -9.2 °C -17.7 °C 1017.5 hPa SW 4.8 km/h 12.9 km/h 50% 0 mm
13:30 -9 °C -17.8 °C 1017.8 hPa West 1.6 km/h 12.9 km/h 49% 0 mm
13:35 -8.9 °C -17.9 °C 1017.8 hPa West 6.4 km/h 12.9 km/h 48% 0 mm
13:45 -8.7 °C -17.7 °C 1017.8 hPa NW 4.8 km/h 9.7 km/h 48% 0 mm
13:50 -8.3 °C -17.1 °C 1017.8 hPa WNW 1.6 km/h 9.7 km/h 49% 0 mm
13:55 -8.1 °C -17.4 °C 1017.8 hPa West 3.2 km/h 6.4 km/h 47% 0 mm
14:00 -7.9 °C -17.3 °C 1018.2 hPa NNW 4.8 km/h 11.3 km/h 47% 0 mm
14:05 -8.1 °C -17.2 °C 1018.2 hPa NNW 3.2 km/h 11.3 km/h 48% 0 mm
14:10 -7.9 °C -17.1 °C 1018.2 hPa WNW 6.4 km/h 11.3 km/h 48% 0 mm
14:15 -8.1 °C -17.4 °C 1018.2 hPa Calm   11.3 km/h 47% 0 mm
14:20 -8 °C -17.3 °C 1018.5 hPa WNW 4.8 km/h 8 km/h 47% 0 mm
14:25 -7.8 °C -16.9 °C 1018.5 hPa WNW 6.4 km/h 11.3 km/h 48% 0 mm
14:35 -7.6 °C -17.2 °C 1018.5 hPa NW 6.4 km/h 11.3 km/h 46% 0 mm
14:40 -7.4 °C -17.1 °C 1018.8 hPa NNW 1.6 km/h 11.3 km/h 46% 0 mm
14:45 -7.2 °C -17.1 °C 1018.8 hPa Calm   11.3 km/h 45% 0 mm
14:50 -7.3 °C -17.2 °C 1018.8 hPa WNW 6.4 km/h 11.3 km/h 45% 0 mm
15:00 -7.2 °C -16.6 °C 1019.2 hPa NE 1.6 km/h 9.7 km/h 47% 0 mm
15:05 -7.1 °C -16.8 °C 1019.2 hPa NW 6.4 km/h 14.5 km/h 46% 0 mm
15:10 -7.4 °C -17.1 °C 1019.2 hPa WNW 1.6 km/h 14.5 km/h 46% 0 mm
15:15 -7.4 °C -17.1 °C 1019.5 hPa Calm   11.3 km/h 46% 0 mm
15:20 -7.3 °C -16.7 °C 1019.5 hPa WNW 3.2 km/h 9.7 km/h 47% 0 mm
15:25 -7.4 °C -17.1 °C 1019.5 hPa NW 4.8 km/h 9.7 km/h 46% 0 mm
15:30 -7.3 °C -16.7 °C 1019.5 hPa NW 3.2 km/h 11.3 km/h 47% 0 mm
15:40 -6.9 °C -16.6 °C 1019.9 hPa NNW 4.8 km/h 9.7 km/h 46% 0 mm
15:45 -6.8 °C -16.6 °C 1019.9 hPa Calm   9.7 km/h 46% 0 mm
15:55 -6.8 °C -16.5 °C 1020.2 hPa North 3.2 km/h 8 km/h 46% 0 mm
16:00 -7.2 °C -16.3 °C 1020.2 hPa North 1.6 km/h 9.7 km/h 48% 0 mm
16:05 -7.3 °C -16.2 °C 1020.2 hPa NNW 1.6 km/h 11.3 km/h 49% 0 mm
16:10 -7.2 °C -16.1 °C 1020.5 hPa NNE 1.6 km/h 12.9 km/h 49% 0 mm
16:15 -7.1 °C -16 °C 1020.5 hPa North 1.6 km/h 12.9 km/h 49% 0 mm
16:20 -7.1 °C -16 °C 1020.5 hPa North 1.6 km/h 11.3 km/h 49% 0 mm
16:25 -7.2 °C -16.1 °C 1020.5 hPa NNW 1.6 km/h 11.3 km/h 49% 0 mm
16:30 -7.2 °C -15.8 °C 1020.9 hPa Calm   8 km/h 50% 0 mm
16:35 -7.3 °C -16.2 °C 1020.9 hPa Calm   8 km/h 49% 0 mm
16:40 -7.5 °C -16.2 °C 1020.9 hPa North 1.6 km/h 9.7 km/h 50% 0 mm
16:50 -7.7 °C -16.1 °C 1020.9 hPa Calm   6.4 km/h 51% 0 mm
16:55 -7.7 °C -16.1 °C 1021.2 hPa Calm   6.4 km/h 51% 0 mm
17:00 -7.7 °C -16.1 °C 1021.2 hPa North 3.2 km/h 9.7 km/h 51% 0 mm
17:05 -7.9 °C -16.1 °C 1021.2 hPa North 1.6 km/h 9.7 km/h 52% 0 mm
17:10 -8.2 °C -16.1 °C 1021.2 hPa Calm   8 km/h 53% 0 mm
17:15 -8.4 °C -16.3 °C 1021.6 hPa NNW 1.6 km/h 8 km/h 53% 0 mm
17:20 -8.7 °C -16.6 °C 1021.6 hPa Calm   8 km/h 53% 0 mm
17:25 -8.9 °C -16.7 °C 1021.9 hPa North 1.6 km/h 6.4 km/h 53% 0 mm
17:30 -9.2 °C -16.8 °C 1021.9 hPa Calm   6.4 km/h 54% 0 mm
17:40 -9.7 °C -16.9 °C 1021.9 hPa NNE 1.6 km/h 6.4 km/h 56% 0 mm
17:50 -10.3 °C -16.9 °C 1022.2 hPa Calm   4.8 km/h 58% 0 mm
17:55 -10.6 °C -17 °C 1022.2 hPa Calm   4.8 km/h 59% 0 mm
18:00 -10.9 °C -17.2 °C 1022.2 hPa Calm     60% 0 mm
18:05 -11 °C -17.1 °C 1022.2 hPa Calm     61% 0 mm
18:10 -11.1 °C -16.8 °C 1022.6 hPa Calm   3.2 km/h 63% 0 mm
18:15 -11.2 °C -16.6 °C 1022.6 hPa Calm   3.2 km/h 64% 0 mm
18:20 -11.3 °C -16.7 °C 1022.6 hPa Calm   4.8 km/h 64% 0 mm
18:30 -11.3 °C -16.7 °C 1022.9 hPa North 1.6 km/h 6.4 km/h 64% 0 mm
18:35 -11.2 °C -16.9 °C 1022.9 hPa Calm   6.4 km/h 63% 0 mm
18:40 -11.2 °C -16.9 °C 1022.9 hPa Calm   6.4 km/h 63% 0 mm
18:45 -11.3 °C -17 °C 1023.2 hPa Calm   1.6 km/h 63% 0 mm
18:50 -11.5 °C -16.9 °C 1023.2 hPa Calm   1.6 km/h 64% 0 mm
18:55 -11.7 °C -16.9 °C 1023.2 hPa Calm     65% 0 mm
19:00 -11.7 °C -17 °C 1023.6 hPa Calm   4.8 km/h 65% 0 mm
19:05 -11.8 °C -17.1 °C 1023.6 hPa Calm   4.8 km/h 65% 0 mm
19:10 -11.8 °C -15.8 °C 1023.6 hPa Calm   4.8 km/h 72% 0 mm
19:15 -11.7 °C -17 °C 1023.9 hPa Calm   3.2 km/h 65% 0 mm
19:20 -11.6 °C -16.8 °C 1023.9 hPa Calm   4.8 km/h 65% 0 mm
19:30 -11.4 °C -16.6 °C 1023.9 hPa Calm   4.8 km/h 66% 0 mm
19:40 -11.4 °C -16.6 °C 1024.3 hPa Calm   4.8 km/h 66% 0 mm
19:50 -11.6 °C -16.6 °C 1024.6 hPa Calm   3.2 km/h 66% 0 mm
19:55 -11.5 °C -16.6 °C 1024.6 hPa Calm   3.2 km/h 66% 0 mm
20:00 -11.4 °C -16.3 °C 1024.6 hPa NNE 1.6 km/h 6.4 km/h 67% 0 mm
20:05 -11.3 °C -16.4 °C 1024.9 hPa Calm   6.4 km/h 66% 0 mm
20:10 -11.2 °C -16.3 °C 1024.9 hPa Calm   6.4 km/h 66% 0 mm
20:15 -11.2 °C -16.4 °C 1024.9 hPa NNW 4.8 km/h 9.7 km/h 65% 0 mm
20:20 -11.1 °C -16.4 °C 1024.9 hPa Calm   9.7 km/h 65% 0 mm
20:25 -10.9 °C -16.2 °C 1025.3 hPa NNW 1.6 km/h 8 km/h 65% 0 mm
20:30 -10.9 °C -16.4 °C 1025.3 hPa Calm   8 km/h 64% 0 mm
20:40 -11.1 °C -16.6 °C 1025.6 hPa Calm   6.4 km/h 64% 0 mm
20:45 -11.2 °C -16.7 °C 1025.6 hPa Calm   1.6 km/h 64% 0 mm
20:50 -11.3 °C -16.8 °C 1025.6 hPa Calm   3.2 km/h 64% 0 mm
20:55 -11.3 °C -16.6 °C 1025.6 hPa Calm   8 km/h 65% 0 mm
21:00 -11.2 °C -16.7 °C 1025.6 hPa Calm   8 km/h 64% 0 mm
21:05 -11.3 °C -16.8 °C 1026 hPa NNW 1.6 km/h 6.4 km/h 64% 0 mm
21:10 -11.3 °C -16.8 °C 1026 hPa NW 1.6 km/h 6.4 km/h 64% 0 mm
21:15 -11.3 °C -16.9 °C 1026 hPa NW 4.8 km/h 12.9 km/h 63% 0 mm
21:20 -11.1 °C -16.8 °C 1026.3 hPa NW 3.2 km/h 12.9 km/h 63% 0 mm
21:30 -10.7 °C -16.7 °C 1026.3 hPa NW 6.4 km/h 12.9 km/h 61% 0 mm
21:40 -10.7 °C -16.7 °C 1026.6 hPa Calm   9.7 km/h 61% 0 mm
21:45 -10.8 °C -17.1 °C 1026.6 hPa Calm   6.4 km/h 60% 0 mm
21:50 -10.8 °C -16.8 °C 1026.6 hPa WNW 3.2 km/h 16.1 km/h 61% 0 mm
21:55 -11 °C -17.1 °C 1026.6 hPa WNW 3.2 km/h 16.1 km/h 61% 0 mm
22:00 -11.1 °C -17.2 °C 1027 hPa NW 3.2 km/h 9.7 km/h 61% 0 mm
22:05 -11.3 °C -17.1 °C 1027 hPa NW 3.2 km/h 8 km/h 62% 0 mm
22:10 -11.5 °C -17.5 °C 1027 hPa NW 1.6 km/h 8 km/h 61% 0 mm
22:15 -11.8 °C -17.4 °C 1027 hPa Calm   3.2 km/h 63% 0 mm
22:20 -11.9 °C -17.6 °C 1027 hPa Calm     63% 0 mm
22:25 -12.1 °C -17.5 °C 1027 hPa Calm   3.2 km/h 64% 0 mm
22:30 -12.2 °C -17.4 °C 1027 hPa Calm   3.2 km/h 65% 0 mm
22:40 -12.3 °C -17.4 °C 1027.3 hPa Calm     66% 0 mm
22:45 -12.3 °C -17.4 °C 1027.3 hPa Calm     66% 0 mm
22:55 -12.9 °C -17.7 °C 1027.7 hPa Calm     67% 0 mm
23:00 -12.9 °C -17.6 °C 1027.7 hPa Calm     68% 0 mm
23:05 -12.9 °C -17.6 °C 1027.7 hPa Calm     68% 0 mm
23:10 -12.8 °C -17.5 °C 1027.7 hPa Calm     68% 0 mm
23:15 -12.8 °C -17.5 °C 1027.7 hPa Calm     68% 0 mm
23:20 -12.9 °C -17.4 °C 1027.7 hPa Calm     69% 0 mm
23:25 -13 °C -17.5 °C 1027.7 hPa Calm     69% 0 mm
23:35 -13.3 °C -17.8 °C 1027.7 hPa Calm     69% 0 mm
23:40 -13.4 °C -17.7 °C 1028 hPa Calm     70% 0 mm
23:45 -13.4 °C -17.6 °C 1028 hPa Calm     71% 0 mm
23:50 -13.2 °C -17.2 °C 1028 hPa Calm     72% 0 mm
Westford Weather
Compliments of Weather Underground

 
 
Current Radar Loop:

Copyright © WestfordWeather.net 2007-2014. All rights reserved.